Heimkehr — DPMA — position and weather

sailwx.info

Track history (hours):
 
Tides and Currents Weather Stations Pressure Air Temp Water Temp Dewpoint Dewpoint Depression Visibility Wind Speed Wind Dir Waves Ship Positions

Heimkehr

Last reported at 2019-Sep-14 08:41 UTC. Time now 2019-Sep-15 14:35 UTC.
Position N 54°03' E 007°51'.

Length 17 m.

Type: Pleasure craft. MMSI: 211382270.

Date/timePositionNaut miles runAvg speedWind from/ knotsBaromVisibWave heightAir tempDewpointWater temp
2019-Sep-14 08:41N 54°03' E 007°51'1 5.7
2019-Sep-14 08:30N 54°02' E 007°50'3 5.7
2019-Sep-14 08:00N 53°59' E 007°49'3 5.7
2019-Sep-14 07:30N 53°56' E 007°47'3 5.2
2019-Sep-14 07:00N 53°55' E 007°44'23 5.2
2019-Sep-14 02:32N 53°49' E 007°06'0 4.9
2019-Sep-14 02:30N 53°49' E 007°05'2 4.7
2019-Sep-14 02:01N 53°48' E 007°02'75 6.3
2019-Sep-13 14:11N 53°25' E 005°02'1 5.9
2019-Sep-13 14:00N 53°24' E 005°00'3 5.8
2019-Sep-13 13:29N 53°22' E 004°56'3 5.6
2019-Sep-13 13:00N 53°20' E 004°53'3 5.6
2019-Sep-13 12:29N 53°18' E 004°49'16 5.3
2019-Sep-13 09:28N 53°03' E 004°41'3 5.8
2019-Sep-13 09:00N 53°01' E 004°42'3 5.2
2019-Sep-13 08:25N 52°59' E 004°47'3 6.6
2019-Sep-13 07:59N 53°01' E 004°50'2 3.5
2019-Sep-13 07:30N 53°03' E 004°51'0 0.3
2019-Sep-13 06:46N 53°03' E 004°52'0 0.0
2019-Sep-13 06:22N 53°03' E 004°52'0 0.0
2019-Sep-13 05:52N 53°03' E 004°52'0 0.0
2019-Sep-13 05:10N 53°03' E 004°52'0 0.0
2019-Sep-13 00:44N 53°03' E 004°52'0 0.0
2019-Sep-13 00:02N 53°03' E 004°52'0 0.0
2019-Sep-12 20:05N 53°03' E 004°52'0 0.0
2019-Sep-12 19:50N 53°03' E 004°52'0 0.0
2019-Sep-12 16:05N 53°03' E 004°52'0 0.0
2019-Sep-12 15:35N 53°03' E 004°52'0 0.0
2019-Sep-12 13:29N 53°03' E 004°52'0 0.0
2019-Sep-12 11:11N 53°03' E 004°52'0 0.0
2019-Sep-12 10:38N 53°03' E 004°52'0 0.0
2019-Sep-12 10:20N 53°03' E 004°52'0 0.0
2019-Sep-12 09:56N 53°03' E 004°52'0 0.0
2019-Sep-12 07:26N 53°03' E 004°52'0 0.0
2019-Sep-12 06:29N 53°03' E 004°52'0 0.0
2019-Sep-12 04:59N 53°03' E 004°52'0 0.0
2019-Sep-12 04:29N 53°03' E 004°52'0 0.0
2019-Sep-12 03:47N 53°03' E 004°52'0 0.0
2019-Sep-12 03:23N 53°03' E 004°52'0 0.0
2019-Sep-12 02:59N 53°03' E 004°52'0 0.0
2019-Sep-12 02:08N 53°03' E 004°52'0 0.0
2019-Sep-12 01:38N 53°03' E 004°52'0 0.0
2019-Sep-12 01:08N 53°03' E 004°52'0 0.0
2019-Sep-12 00:47N 53°03' E 004°52'0 0.0
2019-Sep-12 00:26N 53°03' E 004°52'0 0.0
2019-Sep-11 23:41N 53°03' E 004°52'0 0.0
2019-Sep-11 23:29N 53°03' E 004°52'0 0.0
2019-Sep-11 22:56N 53°03' E 004°52'0 0.0
2019-Sep-11 22:29N 53°03' E 004°52'0 0.0
2019-Sep-11 21:59N 53°03' E 004°52'0 0.0
2019-Sep-11 21:14N 53°03' E 004°52'0 0.0
2019-Sep-11 20:56N 53°03' E 004°52'0 0.0
2019-Sep-11 20:17N 53°03' E 004°52'0 0.0
2019-Sep-11 19:50N 53°03' E 004°52'0 0.0
2019-Sep-11 19:29N 53°03' E 004°52'0 0.0
2019-Sep-11 18:17N 53°03' E 004°52'0 0.0
2019-Sep-11 17:47N 53°03' E 004°52'0 0.0
2019-Sep-11 17:23N 53°03' E 004°52'0 0.0
2019-Sep-11 16:38N 53°03' E 004°52'0 0.0
2019-Sep-11 16:29N 53°03' E 004°52'1 0.0
2019-Sep-10 09:03N 53°02' E 004°51'0 3.4
2019-Sep-10 08:55N 53°02' E 004°51'143 5.9
2019-Sep-09 08:42N 51°31' E 001°51'1 6.5
2019-Sep-09 08:29N 51°30' E 001°50'3 6.3
2019-Sep-09 08:00N 51°27' E 001°46'3 6.0
2019-Sep-09 07:30N 51°25' E 001°43'3 5.8
2019-Sep-09 07:00N 51°24' E 001°39'3 5.8
2019-Sep-09 06:30N 51°22' E 001°35'3 5.6
2019-Sep-09 06:00N 51°21' E 001°31'3 5.4
2019-Sep-09 05:30N 51°19' E 001°27'1 2.3
2019-Sep-09 04:58N 51°20' E 001°25'0 0.0
2019-Sep-09 04:28N 51°20' E 001°25'0 0.0
2019-Sep-09 03:58N 51°20' E 001°25'0 0.0
2019-Sep-09 03:25N 51°20' E 001°25'0 0.0
2019-Sep-09 02:55N 51°20' E 001°25'0 0.0
2019-Sep-09 01:58N 51°20' E 001°25'0 0.0
2019-Sep-09 01:28N 51°20' E 001°25'0 0.0
2019-Sep-09 00:58N 51°20' E 001°25'0 0.0
2019-Sep-09 00:28N 51°20' E 001°25'0 0.0
2019-Sep-08 23:58N 51°20' E 001°25'0 0.0
2019-Sep-08 23:28N 51°20' E 001°25'0 0.0
2019-Sep-08 22:55N 51°20' E 001°25'0 0.0
2019-Sep-08 22:28N 51°20' E 001°25'0 0.0
2019-Sep-08 21:58N 51°20' E 001°25'0 0.0
2019-Sep-08 21:28N 51°20' E 001°25'0 0.0
2019-Sep-08 20:58N 51°20' E 001°25'0 0.0
2019-Sep-08 20:28N 51°20' E 001°25'0 0.0
2019-Sep-08 19:58N 51°20' E 001°25'0 0.0
2019-Sep-08 19:28N 51°20' E 001°25'0 0.0
2019-Sep-08 18:58N 51°20' E 001°25'0 0.0
2019-Sep-08 18:28N 51°20' E 001°25'0 0.0
2019-Sep-08 17:58N 51°20' E 001°25'0 0.0
2019-Sep-08 17:25N 51°20' E 001°25'0 0.0
2019-Sep-08 16:58N 51°20' E 001°25'0 0.0
2019-Sep-08 16:28N 51°20' E 001°25'0 0.0
2019-Sep-08 15:58N 51°20' E 001°25'0 0.0
2019-Sep-08 15:28N 51°20' E 001°25'0 0.0
2019-Sep-08 14:58N 51°20' E 001°25'0 0.0
2019-Sep-08 14:28N 51°20' E 001°25'0 0.0
2019-Sep-08 13:58N 51°20' E 001°25'0 0.0
2019-Sep-08 13:28N 51°20' E 001°25'0 0.0
2019-Sep-08 12:58N 51°20' E 001°25'0 0.0
2019-Sep-08 12:25N 51°20' E 001°25'0 0.0
2019-Sep-08 11:58N 51°20' E 001°25'0 0.0
2019-Sep-08 11:28N 51°20' E 001°25'0 0.0
2019-Sep-08 10:58N 51°20' E 001°25'0 0.0
2019-Sep-08 10:28N 51°20' E 001°25'0 0.0
2019-Sep-08 09:58N 51°20' E 001°25'0 0.0
2019-Sep-08 09:28N 51°20' E 001°25'0 0.0
2019-Sep-08 08:58N 51°20' E 001°25'0 0.0
2019-Sep-08 08:28N 51°20' E 001°25'0 0.0
2019-Sep-08 07:58N 51°20' E 001°25'0 0.0
2019-Sep-08 07:28N 51°20' E 001°25'0 0.0
2019-Sep-08 06:58N 51°20' E 001°25'0 0.0
2019-Sep-08 06:28N 51°20' E 001°25'0 0.0
2019-Sep-08 05:58N 51°20' E 001°25'0 0.0
2019-Sep-08 05:28N 51°20' E 001°25'0 0.0
2019-Sep-08 04:58N 51°20' E 001°25'0 0.0
2019-Sep-08 04:28N 51°20' E 001°25'0 0.0
2019-Sep-08 03:58N 51°20' E 001°25'0 0.0
2019-Sep-08 03:28N 51°20' E 001°25'0 0.0
2019-Sep-08 02:58N 51°20' E 001°25'0 0.0
2019-Sep-08 02:28N 51°20' E 001°25'0 0.0
2019-Sep-08 01:58N 51°20' E 001°25'0 0.0
2019-Sep-08 01:28N 51°20' E 001°25'0 0.0
2019-Sep-08 00:58N 51°20' E 001°25'0 0.0
2019-Sep-08 00:28N 51°20' E 001°25'0 0.0
2019-Sep-07 23:58N 51°20' E 001°25'0 0.0
2019-Sep-07 23:25N 51°20' E 001°25'0 0.0
2019-Sep-07 22:58N 51°20' E 001°25'0 0.0
2019-Sep-07 22:28N 51°20' E 001°25'0 0.0
2019-Sep-07 21:58N 51°20' E 001°25'0 0.0
2019-Sep-07 21:25N 51°20' E 001°25'0 0.0
2019-Sep-07 20:58N 51°20' E 001°25'0 0.0
2019-Sep-07 20:28N 51°20' E 001°25'0 0.0
2019-Sep-07 19:58N 51°20' E 001°25'0 0.0
2019-Sep-07 19:28N 51°20' E 001°25'0 0.0
2019-Sep-07 18:58N 51°20' E 001°25'0 0.0
2019-Sep-07 18:28N 51°20' E 001°25'0 0.0
2019-Sep-07 17:58N 51°20' E 001°25'0 0.0
2019-Sep-07 17:28N 51°20' E 001°25'0 0.0
2019-Sep-07 16:58N 51°20' E 001°25'0 0.0
2019-Sep-07 16:28N 51°20' E 001°25'0 0.0
2019-Sep-07 15:58N 51°20' E 001°25'0 0.0
2019-Sep-07 15:28N 51°20' E 001°25'0 0.0
2019-Sep-07 14:58N 51°20' E 001°25'0 0.0
2019-Sep-07 14:28N 51°20' E 001°25'0 0.0
2019-Sep-07 13:58N 51°20' E 001°25'0 0.0
2019-Sep-07 13:28N 51°20' E 001°25'0 0.0
2019-Sep-07 12:58N 51°20' E 001°25'0 0.0
2019-Sep-07 12:28N 51°20' E 001°25'0 0.0
2019-Sep-07 11:58N 51°20' E 001°25'0 0.0
2019-Sep-07 11:28N 51°20' E 001°25'0 0.0
2019-Sep-07 10:58N 51°20' E 001°25'0 0.0
2019-Sep-07 10:28N 51°20' E 001°25'0 0.0
2019-Sep-07 09:58N 51°20' E 001°25'0 0.0
2019-Sep-07 09:28N 51°20' E 001°25'0 0.0
2019-Sep-07 08:58N 51°20' E 001°25'0 0.0
2019-Sep-07 08:28N 51°20' E 001°25'0 0.0
2019-Sep-07 07:58N 51°20' E 001°25'0 0.0
2019-Sep-07 07:28N 51°20' E 001°25'0 0.0
2019-Sep-07 06:58N 51°20' E 001°25'0 0.0
2019-Sep-07 06:28N 51°20' E 001°25'0 0.0
2019-Sep-07 05:58N 51°20' E 001°25'0 0.0
2019-Sep-07 05:28N 51°20' E 001°25'0 0.0
2019-Sep-07 04:58N 51°20' E 001°25'0 0.0
2019-Sep-07 04:28N 51°20' E 001°25'0 0.0
2019-Sep-07 03:58N 51°20' E 001°25'0 0.0
2019-Sep-07 03:28N 51°20' E 001°25'0 0.0
2019-Sep-07 02:55N 51°20' E 001°25'0 0.0
2019-Sep-07 02:28N 51°20' E 001°25'0 0.0
2019-Sep-07 01:58N 51°20' E 001°25'0 0.0
2019-Sep-07 01:28N 51°20' E 001°25'0 0.0
2019-Sep-07 00:58N 51°20' E 001°25'0 0.0
2019-Sep-07 00:28N 51°20' E 001°25'0 0.0
2019-Sep-06 23:58N 51°20' E 001°25'0 0.0
2019-Sep-06 23:28N 51°20' E 001°25'0 0.0
2019-Sep-06 22:58N 51°20' E 001°25'0 0.0
2019-Sep-06 22:28N 51°20' E 001°25'0 0.0
2019-Sep-06 21:58N 51°20' E 001°25'0 0.0
2019-Sep-06 21:28N 51°20' E 001°25'0 0.0
2019-Sep-06 20:58N 51°20' E 001°25'0 0.0
2019-Sep-06 20:28N 51°20' E 001°25'0 0.0
2019-Sep-06 19:58N 51°20' E 001°25'0 0.0
2019-Sep-06 19:28N 51°20' E 001°25'0 0.0
2019-Sep-06 18:58N 51°20' E 001°25'0 0.0
2019-Sep-06 18:28N 51°20' E 001°25'0 0.0
2019-Sep-06 17:58N 51°20' E 001°25'0 0.0
2019-Sep-06 17:28N 51°20' E 001°25'0 0.0
2019-Sep-06 16:58N 51°20' E 001°25'0 0.0
2019-Sep-06 16:28N 51°20' E 001°25'0 0.0
2019-Sep-06 15:58N 51°20' E 001°25'0 0.0
2019-Sep-06 15:28N 51°20' E 001°25'0 0.0
2019-Sep-06 14:58N 51°20' E 001°25'0 0.0
2019-Sep-06 14:25N 51°20' E 001°25'0 0.0
2019-Sep-06 13:58N 51°20' E 001°25'0 0.0
2019-Sep-06 13:28N 51°20' E 001°25'0 0.0
2019-Sep-06 12:52N 51°20' E 001°25'0 0.0
2019-Sep-06 12:28N 51°20' E 001°25'0 0.0
2019-Sep-06 11:58N 51°20' E 001°25'0 0.0
2019-Sep-06 11:25N 51°20' E 001°25'0 0.0
2019-Sep-06 10:58N 51°20' E 001°25'0 0.0
2019-Sep-06 10:28N 51°20' E 001°25'0 0.0
2019-Sep-06 09:58N 51°20' E 001°25'0 0.0
2019-Sep-06 09:28N 51°20' E 001°25'0 0.0
2019-Sep-06 08:58N 51°20' E 001°25'0 0.0
2019-Sep-06 08:28N 51°20' E 001°25'0 0.0
2019-Sep-06 07:58N 51°20' E 001°25'0 0.0
2019-Sep-06 07:28N 51°20' E 001°25'0 0.0
2019-Sep-06 06:58N 51°20' E 001°25'0 0.0
2019-Sep-06 06:28N 51°20' E 001°25'0 0.0
2019-Sep-06 05:58N 51°20' E 001°25'0 0.0
2019-Sep-06 05:28N 51°20' E 001°25'0 0.0
2019-Sep-06 04:58N 51°20' E 001°25'0 0.0
2019-Sep-06 04:25N 51°20' E 001°25'0 0.0
2019-Sep-06 03:58N 51°20' E 001°25'0 0.0
2019-Sep-06 03:28N 51°20' E 001°25'0 0.0
2019-Sep-06 02:58N 51°20' E 001°25'0 0.0
2019-Sep-06 02:28N 51°20' E 001°25'0 0.0
2019-Sep-06 01:58N 51°20' E 001°25'0 0.0
2019-Sep-06 01:28N 51°20' E 001°25'0 0.0
2019-Sep-06 00:58N 51°20' E 001°25'0 0.0
2019-Sep-06 00:28N 51°20' E 001°25'0 0.0
2019-Sep-05 23:58N 51°20' E 001°25'0 0.0
2019-Sep-05 23:28N 51°20' E 001°25'0 0.0
2019-Sep-05 22:58N 51°20' E 001°25'0 0.0
2019-Sep-05 22:28N 51°20' E 001°25'0 0.0
2019-Sep-05 21:58N 51°20' E 001°25'0 0.0
2019-Sep-05 21:28N 51°20' E 001°25'0 0.0
2019-Sep-05 20:58N 51°20' E 001°25'0 0.0
2019-Sep-05 20:28N 51°20' E 001°25'0 0.0
2019-Sep-05 19:58N 51°20' E 001°25'0 0.0
2019-Sep-05 19:28N 51°20' E 001°25'0 0.0
2019-Sep-05 18:58N 51°20' E 001°25'0 1.0
2019-Sep-05 18:30N 51°20' E 001°26'3 5.1
2019-Sep-05 18:00N 51°17' E 001°27'4 7.0
2019-Sep-05 17:30N 51°14' E 001°26'  
Track history (hours):
 
Tides and Currents Weather Stations Pressure Air Temp Water Temp Dewpoint Dewpoint Depression Visibility Wind Speed Wind Dir Waves Ship Positions

Heimkehr

Last reported at 2019-Sep-14 08:41 UTC. Time now 2019-Sep-15 14:35 UTC.
Position N 54°03' E 007°51'.

Length 17 m.

Type: Pleasure craft. MMSI: 211382270.

Date/timePositionNaut miles runAvg speedWind from/ knotsBaromVisibWave heightAir tempDewpointWater temp
2019-Sep-14 08:41N 54°03' E 007°51'1 5.7
2019-Sep-14 08:30N 54°02' E 007°50'3 5.7
2019-Sep-14 08:00N 53°59' E 007°49'3 5.7
2019-Sep-14 07:30N 53°56' E 007°47'3 5.2
2019-Sep-14 07:00N 53°55' E 007°44'23 5.2
2019-Sep-14 02:32N 53°49' E 007°06'0 4.9
2019-Sep-14 02:30N 53°49' E 007°05'2 4.7
2019-Sep-14 02:01N 53°48' E 007°02'75 6.3
2019-Sep-13 14:11N 53°25' E 005°02'1 5.9
2019-Sep-13 14:00N 53°24' E 005°00'3 5.8
2019-Sep-13 13:29N 53°22' E 004°56'3 5.6
2019-Sep-13 13:00N 53°20' E 004°53'3 5.6
2019-Sep-13 12:29N 53°18' E 004°49'16 5.3
2019-Sep-13 09:28N 53°03' E 004°41'3 5.8
2019-Sep-13 09:00N 53°01' E 004°42'3 5.2
2019-Sep-13 08:25N 52°59' E 004°47'3 6.6
2019-Sep-13 07:59N 53°01' E 004°50'2 3.5
2019-Sep-13 07:30N 53°03' E 004°51'0 0.3
2019-Sep-13 06:46N 53°03' E 004°52'0 0.0
2019-Sep-13 06:22N 53°03' E 004°52'0 0.0
2019-Sep-13 05:52N 53°03' E 004°52'0 0.0
2019-Sep-13 05:10N 53°03' E 004°52'0 0.0
2019-Sep-13 00:44N 53°03' E 004°52'0 0.0
2019-Sep-13 00:02N 53°03' E 004°52'0 0.0
2019-Sep-12 20:05N 53°03' E 004°52'0 0.0
2019-Sep-12 19:50N 53°03' E 004°52'0 0.0
2019-Sep-12 16:05N 53°03' E 004°52'0 0.0
2019-Sep-12 15:35N 53°03' E 004°52'0 0.0
2019-Sep-12 13:29N 53°03' E 004°52'0 0.0
2019-Sep-12 11:11N 53°03' E 004°52'0 0.0
2019-Sep-12 10:38N 53°03' E 004°52'0 0.0
2019-Sep-12 10:20N 53°03' E 004°52'0 0.0
2019-Sep-12 09:56N 53°03' E 004°52'0 0.0
2019-Sep-12 07:26N 53°03' E 004°52'0 0.0
2019-Sep-12 06:29N 53°03' E 004°52'0 0.0
2019-Sep-12 04:59N 53°03' E 004°52'0 0.0
2019-Sep-12 04:29N 53°03' E 004°52'0 0.0
2019-Sep-12 03:47N 53°03' E 004°52'0 0.0
2019-Sep-12 03:23N 53°03' E 004°52'0 0.0
2019-Sep-12 02:59N 53°03' E 004°52'0 0.0
2019-Sep-12 02:08N 53°03' E 004°52'0 0.0
2019-Sep-12 01:38N 53°03' E 004°52'0 0.0
2019-Sep-12 01:08N 53°03' E 004°52'0 0.0
2019-Sep-12 00:47N 53°03' E 004°52'0 0.0
2019-Sep-12 00:26N 53°03' E 004°52'0 0.0
2019-Sep-11 23:41N 53°03' E 004°52'0 0.0
2019-Sep-11 23:29N 53°03' E 004°52'0 0.0
2019-Sep-11 22:56N 53°03' E 004°52'0 0.0
2019-Sep-11 22:29N 53°03' E 004°52'0 0.0
2019-Sep-11 21:59N 53°03' E 004°52'0 0.0
2019-Sep-11 21:14N 53°03' E 004°52'0 0.0
2019-Sep-11 20:56N 53°03' E 004°52'0 0.0
2019-Sep-11 20:17N 53°03' E 004°52'0 0.0
2019-Sep-11 19:50N 53°03' E 004°52'0 0.0
2019-Sep-11 19:29N 53°03' E 004°52'0 0.0
2019-Sep-11 18:17N 53°03' E 004°52'0 0.0
2019-Sep-11 17:47N 53°03' E 004°52'0 0.0
2019-Sep-11 17:23N 53°03' E 004°52'0 0.0
2019-Sep-11 16:38N 53°03' E 004°52'0 0.0
2019-Sep-11 16:29N 53°03' E 004°52'1 0.0
2019-Sep-10 09:03N 53°02' E 004°51'0 3.4
2019-Sep-10 08:55N 53°02' E 004°51'143 5.9
2019-Sep-09 08:42N 51°31' E 001°51'1 6.5
2019-Sep-09 08:29N 51°30' E 001°50'3 6.3
2019-Sep-09 08:00N 51°27' E 001°46'3 6.0
2019-Sep-09 07:30N 51°25' E 001°43'3 5.8
2019-Sep-09 07:00N 51°24' E 001°39'3 5.8
2019-Sep-09 06:30N 51°22' E 001°35'3 5.6
2019-Sep-09 06:00N 51°21' E 001°31'3 5.4
2019-Sep-09 05:30N 51°19' E 001°27'1 2.3
2019-Sep-09 04:58N 51°20' E 001°25'0 0.0
2019-Sep-09 04:28N 51°20' E 001°25'0 0.0
2019-Sep-09 03:58N 51°20' E 001°25'0 0.0
2019-Sep-09 03:25N 51°20' E 001°25'0 0.0
2019-Sep-09 02:55N 51°20' E 001°25'0 0.0
2019-Sep-09 01:58N 51°20' E 001°25'0 0.0
2019-Sep-09 01:28N 51°20' E 001°25'0 0.0
2019-Sep-09 00:58N 51°20' E 001°25'0 0.0
2019-Sep-09 00:28N 51°20' E 001°25'0 0.0
2019-Sep-08 23:58N 51°20' E 001°25'0 0.0
2019-Sep-08 23:28N 51°20' E 001°25'0 0.0
2019-Sep-08 22:55N 51°20' E 001°25'0 0.0
2019-Sep-08 22:28N 51°20' E 001°25'0 0.0
2019-Sep-08 21:58N 51°20' E 001°25'0 0.0
2019-Sep-08 21:28N 51°20' E 001°25'0 0.0
2019-Sep-08 20:58N 51°20' E 001°25'0 0.0
2019-Sep-08 20:28N 51°20' E 001°25'0 0.0
2019-Sep-08 19:58N 51°20' E 001°25'0 0.0
2019-Sep-08 19:28N 51°20' E 001°25'0 0.0
2019-Sep-08 18:58N 51°20' E 001°25'0 0.0
2019-Sep-08 18:28N 51°20' E 001°25'0 0.0
2019-Sep-08 17:58N 51°20' E 001°25'0 0.0
2019-Sep-08 17:25N 51°20' E 001°25'0 0.0
2019-Sep-08 16:58N 51°20' E 001°25'0 0.0
2019-Sep-08 16:28N 51°20' E 001°25'0 0.0
2019-Sep-08 15:58N 51°20' E 001°25'0 0.0
2019-Sep-08 15:28N 51°20' E 001°25'0 0.0
2019-Sep-08 14:58N 51°20' E 001°25'0 0.0
2019-Sep-08 14:28N 51°20' E 001°25'0 0.0
2019-Sep-08 13:58N 51°20' E 001°25'0 0.0
2019-Sep-08 13:28N 51°20' E 001°25'0 0.0
2019-Sep-08 12:58N 51°20' E 001°25'0 0.0
2019-Sep-08 12:25N 51°20' E 001°25'0 0.0
2019-Sep-08 11:58N 51°20' E 001°25'0 0.0
2019-Sep-08 11:28N 51°20' E 001°25'0 0.0
2019-Sep-08 10:58N 51°20' E 001°25'0 0.0
2019-Sep-08 10:28N 51°20' E 001°25'0 0.0
2019-Sep-08 09:58N 51°20' E 001°25'0 0.0
2019-Sep-08 09:28N 51°20' E 001°25'0 0.0
2019-Sep-08 08:58N 51°20' E 001°25'0 0.0
2019-Sep-08 08:28N 51°20' E 001°25'0 0.0
2019-Sep-08 07:58N 51°20' E 001°25'0 0.0
2019-Sep-08 07:28N 51°20' E 001°25'0 0.0
2019-Sep-08 06:58N 51°20' E 001°25'0 0.0
2019-Sep-08 06:28N 51°20' E 001°25'0 0.0
2019-Sep-08 05:58N 51°20' E 001°25'0 0.0
2019-Sep-08 05:28N 51°20' E 001°25'0 0.0
2019-Sep-08 04:58N 51°20' E 001°25'0 0.0
2019-Sep-08 04:28N 51°20' E 001°25'0 0.0
2019-Sep-08 03:58N 51°20' E 001°25'0 0.0
2019-Sep-08 03:28N 51°20' E 001°25'0 0.0
2019-Sep-08 02:58N 51°20' E 001°25'0 0.0
2019-Sep-08 02:28N 51°20' E 001°25'0 0.0
2019-Sep-08 01:58N 51°20' E 001°25'0 0.0
2019-Sep-08 01:28N 51°20' E 001°25'0 0.0
2019-Sep-08 00:58N 51°20' E 001°25'0 0.0
2019-Sep-08 00:28N 51°20' E 001°25'0 0.0
2019-Sep-07 23:58N 51°20' E 001°25'0 0.0
2019-Sep-07 23:25N 51°20' E 001°25'0 0.0
2019-Sep-07 22:58N 51°20' E 001°25'0 0.0
2019-Sep-07 22:28N 51°20' E 001°25'0 0.0
2019-Sep-07 21:58N 51°20' E 001°25'0 0.0
2019-Sep-07 21:25N 51°20' E 001°25'0 0.0
2019-Sep-07 20:58N 51°20' E 001°25'0 0.0
2019-Sep-07 20:28N 51°20' E 001°25'0 0.0
2019-Sep-07 19:58N 51°20' E 001°25'0 0.0
2019-Sep-07 19:28N 51°20' E 001°25'0 0.0
2019-Sep-07 18:58N 51°20' E 001°25'0 0.0
2019-Sep-07 18:28N 51°20' E 001°25'0 0.0
2019-Sep-07 17:58N 51°20' E 001°25'0 0.0
2019-Sep-07 17:28N 51°20' E 001°25'0 0.0
2019-Sep-07 16:58N 51°20' E 001°25'0 0.0
2019-Sep-07 16:28N 51°20' E 001°25'0 0.0
2019-Sep-07 15:58N 51°20' E 001°25'0 0.0
2019-Sep-07 15:28N 51°20' E 001°25'0 0.0
2019-Sep-07 14:58N 51°20' E 001°25'0 0.0
2019-Sep-07 14:28N 51°20' E 001°25'0 0.0
2019-Sep-07 13:58N 51°20' E 001°25'0 0.0
2019-Sep-07 13:28N 51°20' E 001°25'0 0.0
2019-Sep-07 12:58N 51°20' E 001°25'0 0.0
2019-Sep-07 12:28N 51°20' E 001°25'0 0.0
2019-Sep-07 11:58N 51°20' E 001°25'0 0.0
2019-Sep-07 11:28N 51°20' E 001°25'0 0.0
2019-Sep-07 10:58N 51°20' E 001°25'0 0.0
2019-Sep-07 10:28N 51°20' E 001°25'0 0.0
2019-Sep-07 09:58N 51°20' E 001°25'0 0.0
2019-Sep-07 09:28N 51°20' E 001°25'0 0.0
2019-Sep-07 08:58N 51°20' E 001°25'0 0.0
2019-Sep-07 08:28N 51°20' E 001°25'0 0.0
2019-Sep-07 07:58N 51°20' E 001°25'0 0.0
2019-Sep-07 07:28N 51°20' E 001°25'0 0.0
2019-Sep-07 06:58N 51°20' E 001°25'0 0.0
2019-Sep-07 06:28N 51°20' E 001°25'0 0.0
2019-Sep-07 05:58N 51°20' E 001°25'0 0.0
2019-Sep-07 05:28N 51°20' E 001°25'0 0.0
2019-Sep-07 04:58N 51°20' E 001°25'0 0.0
2019-Sep-07 04:28N 51°20' E 001°25'0 0.0
2019-Sep-07 03:58N 51°20' E 001°25'0 0.0
2019-Sep-07 03:28N 51°20' E 001°25'0 0.0
2019-Sep-07 02:55N 51°20' E 001°25'0 0.0
2019-Sep-07 02:28N 51°20' E 001°25'0 0.0
2019-Sep-07 01:58N 51°20' E 001°25'0 0.0
2019-Sep-07 01:28N 51°20' E 001°25'0 0.0
2019-Sep-07 00:58N 51°20' E 001°25'0 0.0
2019-Sep-07 00:28N 51°20' E 001°25'0 0.0
2019-Sep-06 23:58N 51°20' E 001°25'0 0.0
2019-Sep-06 23:28N 51°20' E 001°25'0 0.0
2019-Sep-06 22:58N 51°20' E 001°25'0 0.0
2019-Sep-06 22:28N 51°20' E 001°25'0 0.0
2019-Sep-06 21:58N 51°20' E 001°25'0 0.0
2019-Sep-06 21:28N 51°20' E 001°25'0 0.0
2019-Sep-06 20:58N 51°20' E 001°25'0 0.0
2019-Sep-06 20:28N 51°20' E 001°25'0 0.0
2019-Sep-06 19:58N 51°20' E 001°25'0 0.0
2019-Sep-06 19:28N 51°20' E 001°25'0 0.0
2019-Sep-06 18:58N 51°20' E 001°25'0 0.0
2019-Sep-06 18:28N 51°20' E 001°25'0 0.0
2019-Sep-06 17:58N 51°20' E 001°25'0 0.0
2019-Sep-06 17:28N 51°20' E 001°25'0 0.0
2019-Sep-06 16:58N 51°20' E 001°25'0 0.0
2019-Sep-06 16:28N 51°20' E 001°25'0 0.0
2019-Sep-06 15:58N 51°20' E 001°25'0 0.0
2019-Sep-06 15:28N 51°20' E 001°25'0 0.0
2019-Sep-06 14:58N 51°20' E 001°25'0 0.0
2019-Sep-06 14:25N 51°20' E 001°25'0 0.0
2019-Sep-06 13:58N 51°20' E 001°25'0 0.0
2019-Sep-06 13:28N 51°20' E 001°25'0 0.0
2019-Sep-06 12:52N 51°20' E 001°25'0 0.0
2019-Sep-06 12:28N 51°20' E 001°25'0 0.0
2019-Sep-06 11:58N 51°20' E 001°25'0 0.0
2019-Sep-06 11:25N 51°20' E 001°25'0 0.0
2019-Sep-06 10:58N 51°20' E 001°25'0 0.0
2019-Sep-06 10:28N 51°20' E 001°25'0 0.0
2019-Sep-06 09:58N 51°20' E 001°25'0 0.0
2019-Sep-06 09:28N 51°20' E 001°25'0 0.0
2019-Sep-06 08:58N 51°20' E 001°25'0 0.0
2019-Sep-06 08:28N 51°20' E 001°25'0 0.0
2019-Sep-06 07:58N 51°20' E 001°25'0 0.0
2019-Sep-06 07:28N 51°20' E 001°25'0 0.0
2019-Sep-06 06:58N 51°20' E 001°25'0 0.0
2019-Sep-06 06:28N 51°20' E 001°25'0 0.0
2019-Sep-06 05:58N 51°20' E 001°25'0 0.0
2019-Sep-06 05:28N 51°20' E 001°25'0 0.0
2019-Sep-06 04:58N 51°20' E 001°25'0 0.0
2019-Sep-06 04:25N 51°20' E 001°25'0 0.0
2019-Sep-06 03:58N 51°20' E 001°25'0 0.0
2019-Sep-06 03:28N 51°20' E 001°25'0 0.0
2019-Sep-06 02:58N 51°20' E 001°25'0 0.0
2019-Sep-06 02:28N 51°20' E 001°25'0 0.0
2019-Sep-06 01:58N 51°20' E 001°25'0 0.0
2019-Sep-06 01:28N 51°20' E 001°25'0 0.0
2019-Sep-06 00:58N 51°20' E 001°25'0 0.0
2019-Sep-06 00:28N 51°20' E 001°25'0 0.0
2019-Sep-05 23:58N 51°20' E 001°25'0 0.0
2019-Sep-05 23:28N 51°20' E 001°25'0 0.0
2019-Sep-05 22:58N 51°20' E 001°25'0 0.0
2019-Sep-05 22:28N 51°20' E 001°25'0 0.0
2019-Sep-05 21:58N 51°20' E 001°25'0 0.0
2019-Sep-05 21:28N 51°20' E 001°25'0 0.0
2019-Sep-05 20:58N 51°20' E 001°25'0 0.0
2019-Sep-05 20:28N 51°20' E 001°25'0 0.0
2019-Sep-05 19:58N 51°20' E 001°25'0 0.0
2019-Sep-05 19:28N 51°20' E 001°25'0 0.0
2019-Sep-05 18:58N 51°20' E 001°25'0 1.0
2019-Sep-05 18:30N 51°20' E 001°26'3 5.1
2019-Sep-05 18:00N 51°17' E 001°27'4 7.0
2019-Sep-05 17:30N 51°14' E 001°26'  

Dump ship's entire track history